Time;durP1;ratioP1;P1;durP2;ratioP2;P2;SDS_P1;SDS_P2;PMS_P1;PMS_P2;Temp;Humidity;BMP_temperature;BMP_pressure;BME280_temperature;BME280_humidity;BME280_pressure;Samples;Min_cycle;Max_cycle;Signal;HPM_P1;HPM_P2
2023/04/16 00:01:56;;;;;;;8.00;2.73;;;8.80;99.90;;;;;;5016067;28;20211;-86
2023/04/16 00:04:23;;;;;;;10.83;3.10;;;8.80;99.90;;;;;;5015924;28;20204;-84
2023/04/16 00:06:50;;;;;;;7.77;2.67;;;8.80;99.90;;;;;;5015731;28;20187;-87
2023/04/16 00:09:17;;;;;;;10.20;3.00;;;8.80;99.90;;;;;;5016241;28;20215;-84
2023/04/16 00:11:44;;;;;;;9.70;3.13;;;8.80;99.90;;;;;;5015370;28;20303;-82
2023/04/16 00:14:12;;;;;;;13.67;3.43;;;8.80;99.90;;;;;;5018021;28;20227;-82
2023/04/16 00:16:39;;;;;;;13.10;3.47;;;8.70;99.90;;;;;;5034177;28;20187;-81
2023/04/16 00:19:06;;;;;;;16.17;3.67;;;8.80;99.90;;;;;;5034984;28;20207;-81
2023/04/16 00:21:33;;;;;;;17.10;3.90;;;8.80;99.90;;;;;;5035120;28;20199;-83
2023/04/16 00:24:00;;;;;;;13.07;4.80;;;8.70;99.90;;;;;;5021625;28;20622;-84
2023/04/16 00:26:27;;;;;;;14.20;4.10;;;8.80;99.90;;;;;;5013559;28;20607;-83
2023/04/16 00:28:53;;;;;;;15.50;4.67;;;8.80;99.90;;;;;;5013402;28;20591;-84
2023/04/16 00:31:28;;;;;;;9.90;4.10;;;8.80;99.90;;;;;;5013980;28;20313;-83
2023/04/16 00:33:55;;;;;;;12.53;4.80;;;8.70;99.90;;;;;;5013822;28;20191;-84
2023/04/16 00:36:23;;;;;;;14.33;5.20;;;8.70;99.90;;;;;;5013956;28;20199;-81
2023/04/16 00:38:51;;;;;;;11.57;5.17;;;8.60;99.90;;;;;;5033374;28;20599;-81
2023/04/16 00:41:17;;;;;;;12.37;4.43;;;8.60;99.90;;;;;;5032767;28;20207;-86
2023/04/16 00:43:44;;;;;;;15.00;5.67;;;8.70;99.90;;;;;;5032819;28;20591;-81
2023/04/16 00:46:12;;;;;;;16.47;6.63;;;8.70;99.90;;;;;;5033744;28;20237;-80
2023/04/16 00:48:41;;;;;;;16.73;5.67;;;8.70;99.90;;;;;;5033224;28;20249;-80
2023/04/16 00:51:09;;;;;;;16.20;5.73;;;8.70;99.90;;;;;;5033056;28;20210;-81
2023/04/16 00:53:36;;;;;;;12.00;5.20;;;8.70;99.90;;;;;;5014773;28;20199;-80
2023/04/16 00:56:03;;;;;;;11.53;5.80;;;8.70;99.90;;;;;;5012750;28;20282;-81
2023/04/16 00:58:30;;;;;;;16.93;5.80;;;8.80;99.90;;;;;;5014107;28;20234;-81
2023/04/16 01:00:57;;;;;;;16.33;5.83;;;8.80;99.90;;;;;;5013430;28;20202;-82
2023/04/16 01:03:27;;;;;;;19.17;5.73;;;8.70;99.90;;;;;;5013583;28;20285;-84
2023/04/16 01:05:56;;;;;;;12.77;5.50;;;8.80;99.90;;;;;;5013662;28;20290;-81
2023/04/16 01:08:23;;;;;;;17.20;5.50;;;8.80;99.90;;;;;;5012843;28;20584;-80
2023/04/16 01:10:50;;;;;;;13.87;5.07;;;8.80;99.90;;;;;;5013666;28;20286;-79
2023/04/16 01:13:17;;;;;;;14.83;4.97;;;8.80;99.90;;;;;;5033090;28;20554;-81
2023/04/16 01:15:44;;;;;;;15.30;4.57;;;8.80;99.90;;;;;;5026179;28;20211;-80
2023/04/16 01:18:15;;;;;;;13.13;4.80;;;8.80;99.90;;;;;;5013759;28;20195;-79
2023/04/16 01:20:44;;;;;;;11.77;4.67;;;8.80;99.90;;;;;;5013479;28;20191;-81
2023/04/16 01:23:11;;;;;;;13.83;4.67;;;8.80;99.90;;;;;;5012961;28;20210;-80
2023/04/16 01:25:38;;;;;;;10.27;4.63;;;8.80;99.90;;;;;;5013710;28;20204;-80
2023/04/16 01:28:05;;;;;;;10.80;4.63;;;8.80;99.90;;;;;;5013413;28;20274;-81
2023/04/16 01:30:32;;;;;;;16.07;4.73;;;8.80;99.90;;;;;;5013032;28;20553;-81
2023/04/16 01:32:59;;;;;;;17.60;5.00;;;8.80;99.90;;;;;;5013357;28;20230;-80
2023/04/16 01:35:26;;;;;;;18.33;5.90;;;8.80;99.90;;;;;;5015238;28;20226;-81
2023/04/16 01:37:54;;;;;;;17.17;5.20;;;8.80;99.90;;;;;;5015386;28;20199;-82
2023/04/16 01:40:21;;;;;;;12.87;4.37;;;8.80;99.90;;;;;;5025984;28;20208;-80
2023/04/16 01:42:48;;;;;;;15.43;4.30;;;8.80;99.90;;;;;;5034516;28;20536;-82
2023/04/16 01:45:15;;;;;;;16.87;4.80;;;8.80;99.90;;;;;;5033331;28;20190;-80
2023/04/16 01:47:42;;;;;;;16.07;4.73;;;8.80;99.90;;;;;;5033008;28;20288;-82
2023/04/16 01:50:10;;;;;;;17.70;4.83;;;8.80;99.90;;;;;;5033602;28;20590;-83
2023/04/16 01:52:37;;;;;;;16.47;4.70;;;8.80;99.90;;;;;;5034154;28;20313;-84
2023/04/16 01:55:06;;;;;;;19.13;4.83;;;8.90;99.90;;;;;;5036962;28;20261;-83
2023/04/16 01:57:33;;;;;;;18.27;4.57;;;8.90;99.90;;;;;;5028907;28;20245;-82
2023/04/16 02:00:00;;;;;;;16.17;4.20;;;8.90;99.90;;;;;;5018483;28;20209;-83
2023/04/16 02:02:27;;;;;;;16.70;4.40;;;8.80;99.90;;;;;;5018213;28;20417;-82
2023/04/16 02:04:55;;;;;;;14.93;3.40;;;8.80;99.90;;;;;;5017804;28;20199;-85
2023/04/16 02:07:22;;;;;;;12.30;3.40;;;8.80;99.90;;;;;;5017959;28;20198;-85
2023/04/16 02:09:50;;;;;;;15.40;4.10;;;8.80;99.90;;;;;;5017822;28;20209;-83
2023/04/16 02:12:18;;;;;;;11.80;3.63;;;8.90;99.90;;;;;;5017228;28;20219;-84
2023/04/16 02:14:45;;;;;;;11.57;3.57;;;8.90;99.90;;;;;;5017801;28;20200;-84
2023/04/16 02:17:12;;;;;;;17.43;4.50;;;8.90;99.90;;;;;;5018027;28;20199;-83
2023/04/16 02:19:39;;;;;;;13.63;3.17;;;8.80;99.90;;;;;;5030599;28;20221;-83
2023/04/16 02:22:06;;;;;;;12.07;3.90;;;8.80;99.90;;;;;;5037442;28;20199;-82
2023/04/16 02:24:33;;;;;;;19.87;4.63;;;8.90;99.90;;;;;;5037229;28;20828;-85
2023/04/16 02:27:00;;;;;;;11.03;3.50;;;8.90;99.90;;;;;;5036739;28;20293;-83
2023/04/16 02:29:28;;;;;;;13.00;4.07;;;8.90;99.90;;;;;;5036360;28;20202;-84
2023/04/16 02:31:55;;;;;;;9.17;2.63;;;8.90;99.90;;;;;;5024680;28;20289;-84
2023/04/16 02:34:22;;;;;;;11.87;2.70;;;8.80;99.90;;;;;;5016668;28;20199;-82
2023/04/16 02:36:49;;;;;;;10.27;3.07;;;8.90;99.90;;;;;;5017038;28;20294;-80
2023/04/16 02:39:16;;;;;;;12.73;3.60;;;8.90;99.90;;;;;;5016938;28;20209;-80
2023/04/16 02:41:43;;;;;;;9.83;2.90;;;8.90;99.90;;;;;;5016518;28;20237;-82
2023/04/16 02:44:09;;;;;;;12.43;3.00;;;8.90;99.90;;;;;;5016461;28;20246;-83
2023/04/16 02:46:38;;;;;;;18.43;5.10;;;8.90;99.90;;;;;;5016887;28;20306;-82
2023/04/16 02:49:05;;;;;;;12.57;3.10;;;8.90;99.90;;;;;;5016015;28;20546;-82
2023/04/16 02:51:32;;;;;;;17.53;3.50;;;8.90;99.90;;;;;;5020795;28;20237;-85
2023/04/16 02:53:58;;;;;;;12.17;3.10;;;8.90;99.90;;;;;;5035798;28;20226;-80
2023/04/16 02:56:25;;;;;;;12.23;3.03;;;8.90;99.90;;;;;;5035843;28;20245;-83
2023/04/16 02:58:52;;;;;;;16.63;3.57;;;8.90;99.90;;;;;;5036104;28;20230;-82
2023/04/16 03:01:19;;;;;;;13.97;3.87;;;8.80;99.90;;;;;;5025281;28;20207;-80
2023/04/16 03:03:47;;;;;;;13.20;3.20;;;8.80;99.90;;;;;;5016535;28;20198;-81
2023/04/16 03:06:14;;;;;;;14.27;4.27;;;8.80;99.90;;;;;;5016113;28;20318;-81
2023/04/16 03:08:41;;;;;;;9.83;3.00;;;8.90;99.90;;;;;;5015452;28;20278;-80
2023/04/16 03:11:08;;;;;;;14.93;3.63;;;8.90;99.90;;;;;;5016098;28;20575;-82
2023/04/16 03:13:35;;;;;;;11.60;2.83;;;8.90;99.90;;;;;;5015880;28;20685;-83
2023/04/16 03:16:02;;;;;;;15.17;4.20;;;8.90;99.90;;;;;;5015619;28;20227;-82
2023/04/16 03:18:28;;;;;;;16.60;4.17;;;8.90;99.90;;;;;;5015584;28;20281;-81
2023/04/16 03:20:57;;;;;;;11.77;3.67;;;8.90;99.90;;;;;;5015905;28;20195;-83
2023/04/16 03:23:24;;;;;;;7.97;2.87;;;8.90;99.90;;;;;;5015528;28;20282;-83
2023/04/16 03:25:50;;;;;;;10.67;2.87;;;8.90;99.90;;;;;;5015545;28;20233;-81
2023/04/16 03:28:17;;;;;;;16.40;3.53;;;8.90;99.90;;;;;;5015360;28;20636;-81
2023/04/16 03:30:50;;;;;;;13.30;3.03;;;8.90;99.90;;;;;;5014849;28;20587;-84
2023/04/16 03:33:17;;;;;;;13.83;3.67;;;8.90;99.90;;;;;;5015586;28;20225;-84
2023/04/16 03:35:44;;;;;;;13.77;3.43;;;8.80;99.90;;;;;;5015601;28;20213;-80
2023/04/16 03:38:12;;;;;;;8.83;3.30;;;8.80;99.90;;;;;;5015044;28;20234;-84
2023/04/16 03:40:39;;;;;;;11.53;3.97;;;8.80;99.90;;;;;;5015914;28;20566;-83
2023/04/16 03:43:06;;;;;;;13.07;4.07;;;8.80;99.90;;;;;;5015097;28;20231;-83
2023/04/16 03:45:33;;;;;;;9.37;3.37;;;8.80;99.90;;;;;;5016233;28;20246;-81
2023/04/16 03:48:00;;;;;;;15.93;3.40;;;8.80;99.90;;;;;;5015641;28;20283;-81
2023/04/16 03:50:27;;;;;;;11.97;3.33;;;8.80;99.90;;;;;;5014997;28;20199;-82
2023/04/16 03:52:54;;;;;;;10.10;3.67;;;8.80;99.90;;;;;;5015442;28;20314;-82
2023/04/16 03:55:22;;;;;;;9.57;3.50;;;8.80;99.90;;;;;;5015092;28;20200;-80
2023/04/16 03:57:49;;;;;;;21.43;4.17;;;8.70;99.90;;;;;;5032333;28;20245;-85
2023/04/16 04:00:16;;;;;;;11.50;3.40;;;8.70;99.90;;;;;;5035227;28;20286;-82
2023/04/16 04:02:43;;;;;;;14.23;3.70;;;8.70;99.90;;;;;;5034849;28;20282;-82
2023/04/16 04:05:10;;;;;;;11.23;3.97;;;8.70;99.90;;;;;;5014936;28;20254;-81
2023/04/16 04:07:37;;;;;;;15.70;4.17;;;8.80;99.90;;;;;;5015109;28;20195;-84
2023/04/16 04:10:04;;;;;;;13.97;3.93;;;8.80;99.90;;;;;;5015136;28;20320;-82
2023/04/16 04:12:33;;;;;;;16.87;4.07;;;8.80;99.90;;;;;;5014224;28;20272;-82
2023/04/16 04:15:00;;;;;;;11.77;3.20;;;8.70;99.90;;;;;;5014900;28;20290;-80
2023/04/16 04:17:27;;;;;;;10.07;3.23;;;8.70;99.90;;;;;;5026219;28;20233;-82
2023/04/16 04:19:54;;;;;;;15.37;4.80;;;8.70;99.90;;;;;;5033963;28;20297;-82
2023/04/16 04:22:21;;;;;;;13.80;4.30;;;8.70;99.90;;;;;;5034164;28;20217;-82
2023/04/16 04:24:48;;;;;;;21.03;4.40;;;8.70;99.90;;;;;;5017563;28;20211;-82
2023/04/16 04:27:15;;;;;;;16.67;4.10;;;8.70;99.90;;;;;;5014192;28;20227;-83
2023/04/16 04:29:43;;;;;;;11.93;3.93;;;8.70;99.90;;;;;;5014816;28;20210;-82
2023/04/16 04:32:10;;;;;;;10.30;3.53;;;8.60;99.90;;;;;;5013947;28;20690;-81
2023/04/16 04:34:37;;;;;;;15.70;4.60;;;8.60;99.90;;;;;;5014192;28;20195;-83
2023/04/16 04:37:04;;;;;;;13.77;3.83;;;8.70;99.90;;;;;;5014033;28;20199;-81
2023/04/16 04:39:30;;;;;;;15.13;4.50;;;8.70;99.90;;;;;;5014074;28;20306;-81
2023/04/16 04:41:57;;;;;;;11.87;3.87;;;8.70;99.90;;;;;;5014492;28;20294;-81
2023/04/16 04:44:24;;;;;;;11.53;4.00;;;8.70;99.90;;;;;;5014030;28;20269;-81
2023/04/16 04:46:53;;;;;;;9.30;3.70;;;8.70;99.90;;;;;;5013457;28;20235;-83
2023/04/16 04:49:20;;;;;;;20.23;4.77;;;8.70;99.90;;;;;;5014203;28;20278;-83
2023/04/16 04:51:47;;;;;;;12.07;4.13;;;8.70;99.90;;;;;;5014292;28;20514;-82
2023/04/16 04:54:14;;;;;;;22.67;4.63;;;8.70;99.90;;;;;;5013726;28;20237;-81
2023/04/16 04:56:44;;;;;;;15.00;5.50;;;8.70;99.90;;;;;;5014310;28;20237;-82
2023/04/16 04:59:11;;;;;;;12.93;4.67;;;8.70;99.90;;;;;;5013912;28;20257;-85
2023/04/16 05:01:38;;;;;;;16.47;5.10;;;8.70;99.90;;;;;;5013708;28;20227;-82
2023/04/16 05:04:06;;;;;;;15.83;5.23;;;8.70;99.90;;;;;;5014276;28;20678;-82
2023/04/16 05:06:35;;;;;;;10.83;5.47;;;8.80;99.90;;;;;;5013561;28;20195;-81
2023/04/16 05:09:02;;;;;;;11.10;5.80;;;8.70;99.90;;;;;;5032760;28;20619;-82
2023/04/16 05:11:29;;;;;;;13.63;5.00;;;8.70;99.90;;;;;;5033404;28;20230;-82
2023/04/16 05:13:56;;;;;;;13.20;5.47;;;8.70;99.90;;;;;;5034018;28;20218;-85
2023/04/16 05:16:23;;;;;;;21.73;6.47;;;8.80;99.90;;;;;;5033212;28;20211;-81
2023/04/16 05:18:50;;;;;;;13.03;5.03;;;8.80;99.90;;;;;;5014963;28;20237;-83
2023/04/16 05:21:18;;;;;;;18.70;6.33;;;8.80;99.90;;;;;;5013606;28;20198;-84
2023/04/16 05:23:45;;;;;;;18.13;5.93;;;8.80;99.90;;;;;;5013087;28;20211;-81
2023/04/16 05:26:12;;;;;;;18.97;5.80;;;8.80;99.90;;;;;;5013106;28;20207;-83
2023/04/16 05:28:39;;;;;;;17.47;5.60;;;8.70;99.90;;;;;;5012629;28;20553;-81
2023/04/16 05:31:06;;;;;;;16.73;5.80;;;8.70;99.90;;;;;;5013162;28;20235;-82
2023/04/16 05:33:33;;;;;;;21.30;6.77;;;8.70;99.90;;;;;;5013325;28;20293;-84
2023/04/16 05:36:00;;;;;;;17.20;7.87;;;8.70;99.90;;;;;;5012586;28;20310;-80
2023/04/16 05:38:28;;;;;;;13.57;7.43;;;8.70;99.90;;;;;;5013024;28;20688;-82
2023/04/16 05:40:55;;;;;;;15.80;8.37;;;8.80;99.90;;;;;;5013133;28;20275;-80
2023/04/16 05:43:22;;;;;;;20.53;7.27;;;8.80;99.90;;;;;;5012549;28;20199;-81
2023/04/16 05:45:49;;;;;;;23.63;7.57;;;8.80;99.90;;;;;;5013005;28;20203;-84
2023/04/16 05:48:16;;;;;;;22.50;6.70;;;8.80;99.90;;;;;;5026706;28;20206;-81
2023/04/16 05:50:43;;;;;;;25.03;6.73;;;8.80;99.90;;;;;;5032569;28;20879;-80
2023/04/16 05:53:10;;;;;;;16.93;7.50;;;8.80;99.90;;;;;;5033199;28;20246;-82
2023/04/16 05:55:38;;;;;;;21.90;7.00;;;8.80;99.90;;;;;;5032687;28;20483;-81
2023/04/16 05:58:05;;;;;;;17.17;7.00;;;8.80;99.90;;;;;;5012248;28;20265;-83
2023/04/16 06:00:33;;;;;;;23.47;6.70;;;8.80;99.90;;;;;;5012599;28;20303;-80
2023/04/16 06:02:59;;;;;;;16.77;6.90;;;8.80;99.90;;;;;;5013172;28;20199;-83
2023/04/16 06:05:27;;;;;;;15.50;5.47;;;8.80;99.90;;;;;;5021124;28;20206;-82
2023/04/16 06:07:54;;;;;;;19.47;6.47;;;8.80;99.90;;;;;;5032862;28;20205;-83
2023/04/16 06:10:21;;;;;;;20.17;6.90;;;8.80;99.90;;;;;;5032670;28;20203;-81
2023/04/16 06:12:50;;;;;;;16.53;6.47;;;8.80;99.90;;;;;;5031935;28;20202;-82
2023/04/16 06:15:17;;;;;;;14.57;5.73;;;8.80;99.90;;;;;;5032068;28;20213;-81
2023/04/16 06:17:43;;;;;;;17.00;6.93;;;8.80;99.90;;;;;;5032374;28;20608;-84
2023/04/16 06:20:12;;;;;;;19.80;7.10;;;8.90;99.90;;;;;;5032655;28;20198;-81
2023/04/16 06:22:39;;;;;;;13.80;6.53;;;8.80;99.90;;;;;;5020474;28;20207;-80
2023/04/16 06:25:07;;;;;;;17.20;6.30;;;8.80;99.90;;;;;;5012522;28;20226;-84
2023/04/16 06:27:34;;;;;;;11.57;5.57;;;8.90;99.90;;;;;;5024076;28;20210;-78
2023/04/16 06:30:02;;;;;;;15.23;6.90;;;8.80;99.90;;;;;;5029661;28;20195;-81
2023/04/16 06:32:29;;;;;;;15.53;6.37;;;8.80;99.90;;;;;;5031466;28;20235;-80
2023/04/16 06:34:57;;;;;;;14.20;6.57;;;8.90;99.90;;;;;;5031400;28;20573;-81
2023/04/16 06:37:24;;;;;;;16.17;5.50;;;8.90;99.90;;;;;;5032162;28;20766;-80
2023/04/16 06:42:32;;;;;;;17.80;6.70;;;8.80;99.90;;;;;;5015084;28;20207;-81
2023/04/16 06:44:59;;;;;;;14.50;6.27;;;8.90;99.90;;;;;;5016455;28;20195;-78
2023/04/16 06:47:27;;;;;;;15.13;6.27;;;8.80;99.90;;;;;;5030787;28;20220;-79
2023/04/16 06:49:54;;;;;;;14.53;6.33;;;8.90;99.90;;;;;;5028895;28;20784;-82
2023/04/16 06:52:21;;;;;;;14.70;6.07;;;8.90;99.90;;;;;;5016235;28;20235;-81
2023/04/16 06:54:48;;;;;;;15.40;5.50;;;9.00;99.90;;;;;;5015421;28;20230;-82
2023/04/16 06:57:15;;;;;;;14.17;6.27;;;9.00;99.90;;;;;;5015931;28;20235;-82
2023/04/16 06:59:42;;;;;;;17.77;6.00;;;9.00;99.90;;;;;;5032280;28;20210;-82
2023/04/16 07:02:10;;;;;;;12.57;6.30;;;9.00;99.90;;;;;;5034980;28;20478;-81
2023/04/16 07:04:38;;;;;;;14.57;5.83;;;9.00;99.90;;;;;;5018415;28;20250;-81
2023/04/16 07:07:05;;;;;;;13.97;7.53;;;9.00;99.90;;;;;;5014878;28;20206;-83
2023/04/16 07:09:32;;;;;;;12.00;5.97;;;8.90;99.90;;;;;;5013754;28;20222;-80
2023/04/16 07:11:59;;;;;;;12.70;7.17;;;8.90;99.90;;;;;;5022736;28;20595;-81
2023/04/16 07:14:26;;;;;;;14.73;6.37;;;8.90;99.90;;;;;;5006996;28;20242;-81
2023/04/16 07:16:53;;;;;;;9.30;6.03;;;9.00;99.90;;;;;;5031958;28;20300;-79
2023/04/16 07:19:20;;;;;;;12.10;6.37;;;9.00;99.90;;;;;;5033698;28;20265;-85
2023/04/16 07:21:48;;;;;;;17.70;6.53;;;9.00;99.90;;;;;;5026957;28;20546;-80
2023/04/16 07:24:16;;;;;;;10.33;5.83;;;9.00;99.90;;;;;;5034288;28;20697;-83
2023/04/16 07:26:43;;;;;;;9.67;5.90;;;9.10;99.90;;;;;;5020952;28;20340;-80
2023/04/16 07:29:10;;;;;;;11.60;5.83;;;9.10;99.90;;;;;;5029463;28;20234;-81
2023/04/16 07:31:36;;;;;;;10.33;6.17;;;9.20;99.90;;;;;;5046809;28;20230;-81
2023/04/16 07:34:03;;;;;;;12.23;6.10;;;9.10;99.90;;;;;;5030832;28;20758;-81
2023/04/16 07:36:30;;;;;;;14.97;6.27;;;9.20;99.90;;;;;;5014672;28;20207;-80
2023/04/16 07:38:58;;;;;;;14.37;5.57;;;9.20;99.90;;;;;;5015113;28;20290;-81
2023/04/16 07:41:25;;;;;;;11.60;5.67;;;9.20;99.90;;;;;;5014928;28;20246;-79
2023/04/16 07:43:52;;;;;;;6.83;4.67;;;9.20;99.90;;;;;;5014341;28;20604;-81
2023/04/16 07:46:19;;;;;;;9.43;4.67;;;9.20;99.90;;;;;;5014302;28;20195;-81
2023/04/16 07:48:46;;;;;;;11.10;5.10;;;9.30;99.90;;;;;;5014404;28;20651;-80
2023/04/16 07:51:13;;;;;;;13.60;4.73;;;9.30;99.90;;;;;;5012568;28;20209;-79
2023/04/16 07:53:40;;;;;;;16.43;5.03;;;9.30;99.90;;;;;;5024900;28;20225;-80
2023/04/16 07:56:09;;;;;;;14.43;5.70;;;9.30;99.90;;;;;;5033973;28;20194;-79
2023/04/16 07:58:36;;;;;;;13.07;6.00;;;9.40;99.90;;;;;;5016865;28;20233;-79
2023/04/16 08:01:03;;;;;;;10.73;5.43;;;9.40;99.90;;;;;;5013900;28;20231;-81
2023/04/16 08:03:30;;;;;;;15.77;7.03;;;9.40;99.90;;;;;;5014448;28;20742;-81
2023/04/16 08:05:57;;;;;;;15.50;7.03;;;9.40;99.90;;;;;;5014688;28;20592;-86
2023/04/16 08:08:24;;;;;;;15.67;6.60;;;9.50;99.90;;;;;;5016232;28;20299;-86
2023/04/16 08:10:54;;;;;;;19.43;6.50;;;9.50;99.90;;;;;;5014770;28;20338;-81
2023/04/16 08:13:22;;;;;;;16.50;7.30;;;9.50;99.90;;;;;;5015429;28;20196;-84
2023/04/16 08:15:49;;;;;;;14.03;7.63;;;9.50;99.90;;;;;;5015311;28;20210;-84
2023/04/16 08:18:16;;;;;;;17.50;7.60;;;9.60;99.90;;;;;;5015116;28;20278;-85
2023/04/16 08:20:43;;;;;;;14.93;6.37;;;9.60;99.90;;;;;;5015744;28;20290;-86
2023/04/16 08:23:10;;;;;;;13.20;7.17;;;9.60;99.90;;;;;;5016309;28;20253;-81
2023/04/16 08:25:37;;;;;;;15.43;6.63;;;9.60;99.90;;;;;;5018673;28;20238;-82
2023/04/16 08:28:04;;;;;;;14.47;7.23;;;9.70;99.90;;;;;;5015169;28;20290;-84
2023/04/16 08:30:33;;;;;;;13.73;7.17;;;9.70;99.90;;;;;;5014803;28;20231;-83
2023/04/16 08:33:00;;;;;;;17.40;7.83;;;9.70;99.90;;;;;;5014774;28;20623;-84
2023/04/16 08:35:27;;;;;;;17.70;7.80;;;9.70;99.90;;;;;;5014951;28;20230;-82
2023/04/16 08:37:54;;;;;;;14.93;7.73;;;9.80;99.90;;;;;;5017578;28;20203;-86
2023/04/16 08:40:21;;;;;;;20.30;8.47;;;9.80;99.90;;;;;;5025982;28;20592;-85
2023/04/16 08:42:54;;;;;;;16.40;7.97;;;9.80;99.90;;;;;;5025130;28;20202;-85
2023/04/16 08:45:21;;;;;;;20.23;8.23;;;9.90;99.90;;;;;;5034739;28;20232;-83
2023/04/16 08:47:51;;;;;;;18.17;7.87;;;9.90;99.90;;;;;;5033737;28;20587;-86
2023/04/16 08:50:24;;;;;;;18.43;7.77;;;9.80;99.90;;;;;;5032935;28;20281;-86
2023/04/16 08:52:52;;;;;;;21.10;7.40;;;9.80;99.90;;;;;;5031242;28;20203;-84
2023/04/16 08:55:23;;;;;;;12.17;7.13;;;9.80;99.90;;;;;;5032100;28;20519;-85
2023/04/16 08:57:54;;;;;;;14.23;7.03;;;9.80;99.90;;;;;;5018200;28;20295;-84
2023/04/16 09:00:21;;;;;;;14.77;7.27;;;9.80;99.90;;;;;;5023775;28;20206;-82
2023/04/16 09:02:50;;;;;;;21.87;7.37;;;9.80;99.90;;;;;;5025838;28;20214;-88
2023/04/16 09:05:17;;;;;;;15.17;6.57;;;9.80;99.90;;;;;;5014676;28;20242;-84
2023/04/16 09:07:47;;;;;;;19.33;7.33;;;9.80;99.90;;;;;;5012219;28;20278;-81
2023/04/16 09:10:15;;;;;;;13.80;6.67;;;9.90;99.90;;;;;;5013778;28;20203;-83
2023/04/16 09:12:42;;;;;;;16.53;6.93;;;9.80;99.90;;;;;;5014208;28;20298;-80
2023/04/16 09:15:10;;;;;;;14.63;6.77;;;9.80;99.90;;;;;;5012263;28;20225;-82
2023/04/16 09:17:37;;;;;;;19.37;8.20;;;9.80;99.90;;;;;;5026238;28;20208;-80
2023/04/16 09:20:09;;;;;;;19.37;7.70;;;9.80;99.90;;;;;;5032945;28;20195;-80
2023/04/16 09:22:37;;;;;;;10.43;6.13;;;9.90;99.90;;;;;;5032770;28;20198;-80
2023/04/16 09:25:04;;;;;;;20.53;6.43;;;9.90;99.90;;;;;;5032252;28;20776;-80
2023/04/16 09:27:31;;;;;;;14.97;6.50;;;9.90;99.90;;;;;;5015686;28;20294;-81
2023/04/16 09:29:58;;;;;;;17.53;6.40;;;9.90;99.90;;;;;;5012010;28;20261;-79
2023/04/16 09:32:27;;;;;;;13.20;6.13;;;9.90;99.90;;;;;;5022763;28;20321;-80
2023/04/16 09:34:56;;;;;;;14.43;6.67;;;9.90;99.90;;;;;;5031139;28;20882;-81
2023/04/16 09:37:31;;;;;;;14.40;7.20;;;9.90;99.90;;;;;;5052392;23;20503;-80
2023/04/16 09:40:00;;;;;;;13.73;6.63;;;9.90;99.90;;;;;;5044144;28;20197;-79
2023/04/16 09:42:29;;;;;;;17.13;6.43;;;10.00;99.90;;;;;;5051841;28;20230;-82
2023/04/16 09:44:56;;;;;;;13.43;6.87;;;10.00;99.90;;;;;;5052465;28;20212;-84
2023/04/16 09:47:25;;;;;;;15.13;6.40;;;10.00;99.90;;;;;;5050212;28;20200;-82
2023/04/16 09:49:52;;;;;;;16.70;7.60;;;10.00;99.90;;;;;;5049906;28;20225;-88
2023/04/16 09:52:20;;;;;;;16.93;8.40;;;10.10;99.90;;;;;;5034416;28;20234;-85
2023/04/16 09:54:50;;;;;;;13.30;7.30;;;10.10;99.90;;;;;;5034870;28;20218;-85
2023/04/16 09:57:21;;;;;;;18.90;8.00;;;10.10;99.90;;;;;;5033841;28;20584;-86
2023/04/16 09:59:48;;;;;;;14.27;7.47;;;10.10;99.90;;;;;;5034354;28;20206;-88
2023/04/16 10:02:15;;;;;;;13.87;8.10;;;10.10;99.90;;;;;;5034833;28;20237;-86
2023/04/16 10:04:48;;;;;;;12.67;7.60;;;10.20;99.90;;;;;;5034191;28;20199;-86
2023/04/16 10:07:15;;;;;;;20.03;7.33;;;10.20;99.90;;;;;;5034706;28;20237;-86
2023/04/16 10:09:42;;;;;;;16.33;8.40;;;10.20;99.90;;;;;;5041946;28;20232;-86
2023/04/16 10:12:12;;;;;;;15.80;7.23;;;10.20;99.90;;;;;;5049766;28;20226;-86
2023/04/16 10:14:39;;;;;;;14.40;6.77;;;10.10;99.90;;;;;;5054213;28;20528;-88
2023/04/16 10:17:06;;;;;;;18.07;6.47;;;10.10;99.90;;;;;;5057979;28;20190;-86
2023/04/16 10:19:34;;;;;;;14.90;6.03;;;10.20;99.90;;;;;;5055308;28;20220;-89
2023/04/16 10:22:01;;;;;;;14.30;6.60;;;10.20;99.90;;;;;;5038181;28;20289;-88
2023/04/16 10:24:29;;;;;;;18.30;7.23;;;10.20;99.90;;;;;;5038123;28;20750;-86
2023/04/16 10:26:56;;;;;;;15.03;7.13;;;10.30;99.90;;;;;;5046084;28;20205;-88
2023/04/16 10:29:26;;;;;;;19.03;6.90;;;10.30;99.90;;;;;;5057820;28;20206;-86
2023/04/16 10:31:55;;;;;;;16.93;7.23;;;10.30;99.90;;;;;;5057717;28;20313;-88
2023/04/16 10:34:23;;;;;;;21.87;8.23;;;10.30;99.90;;;;;;5050536;28;20587;-87
2023/04/16 10:36:52;;;;;;;14.80;7.17;;;10.30;99.90;;;;;;5057765;28;20317;-89
2023/04/16 10:39:20;;;;;;;15.70;7.47;;;10.30;99.90;;;;;;5057843;28;20210;-88
2023/04/16 10:41:48;;;;;;;14.13;7.23;;;10.30;99.90;;;;;;5052702;28;20195;-88
2023/04/16 10:44:17;;;;;;;20.83;7.50;;;10.30;99.90;;;;;;5047702;28;20202;-82
2023/04/16 10:46:49;;;;;;;14.67;7.23;;;10.30;99.90;;;;;;5049816;28;20209;-87
2023/04/16 10:49:17;;;;;;;21.20;7.97;;;10.30;99.90;;;;;;5037545;28;20202;-85
2023/04/16 10:51:53;;;;;;;18.47;8.13;;;10.40;99.90;;;;;;5040133;28;20595;-82
2023/04/16 10:54:23;;;;;;;15.97;7.27;;;10.40;99.90;;;;;;5055845;28;20181;-87
2023/04/16 10:56:50;;;;;;;16.07;7.93;;;10.30;99.90;;;;;;5056172;28;20209;-86
2023/04/16 10:59:19;;;;;;;18.80;7.80;;;10.40;99.90;;;;;;5054662;28;20285;-89
2023/04/16 11:01:50;;;;;;;19.03;8.27;;;10.40;99.90;;;;;;5037347;28;20603;-88
2023/04/16 11:04:44;;;;;;;19.10;8.63;;;10.40;99.90;;;;;;5036074;28;20209;-84
2023/04/16 11:07:21;;;;;;;18.40;8.47;;;10.50;99.90;;;;;;4989233;28;20209;-83
2023/04/16 11:09:59;;;;;;;18.63;8.97;;;10.50;99.90;;;;;;5036262;28;20190;-88
2023/04/16 11:12:33;;;;;;;26.17;9.43;;;10.60;99.90;;;;;;5051689;28;20598;-87
2023/04/16 11:15:01;;;;;;;22.77;9.00;;;10.60;99.90;;;;;;5053562;28;20392;-88
2023/04/16 11:17:32;;;;;;;17.83;8.73;;;10.60;99.90;;;;;;5054961;28;20658;-89
2023/04/16 11:19:59;;;;;;;21.67;9.87;;;10.60;99.90;;;;;;5047682;28;20203;-85
2023/04/16 11:22:27;;;;;;;24.23;9.37;;;10.60;99.90;;;;;;5053910;28;20212;-89
2023/04/16 11:24:55;;;;;;;24.07;10.17;;;10.60;99.90;;;;;;5054769;28;20198;-79
2023/04/16 11:27:22;;;;;;;19.73;9.30;;;10.70;99.90;;;;;;5053401;28;20243;-81
2023/04/16 11:29:57;;;;;;;21.77;10.00;;;10.70;99.90;;;;;;5051851;28;20204;-82
2023/04/16 11:32:24;;;;;;;17.83;9.53;;;10.70;99.90;;;;;;5053066;28;20275;-82
2023/04/16 11:34:53;;;;;;;20.87;9.43;;;10.80;99.90;;;;;;5054036;28;20516;-80
2023/04/16 11:37:32;;;;;;;17.83;8.83;;;10.70;99.90;;;;;;5038210;28;20261;-88
2023/04/16 11:40:00;;;;;;;18.90;8.80;;;10.80;99.90;;;;;;5035965;28;20571;-81
2023/04/16 11:42:28;;;;;;;22.87;9.80;;;10.80;99.90;;;;;;5053887;28;20340;-80
2023/04/16 11:44:56;;;;;;;16.33;8.97;;;10.80;99.90;;;;;;5055445;28;20226;-79
2023/04/16 11:47:23;;;;;;;18.70;8.73;;;10.90;99.90;;;;;;5054143;28;20194;-80
2023/04/16 11:49:52;;;;;;;26.67;10.07;;;10.90;99.90;;;;;;5053467;28;20209;-79
2023/04/16 11:52:27;;;;;;;20.37;8.03;;;10.90;99.90;;;;;;5054735;28;20202;-86
2023/04/16 11:54:54;;;;;;;23.97;7.93;;;10.90;99.90;;;;;;5047224;28;20226;-83
2023/04/16 11:57:28;;;;;;;23.20;8.37;;;10.90;99.90;;;;;;5034005;28;20202;-80
2023/04/16 11:59:55;;;;;;;15.70;7.57;;;11.00;99.90;;;;;;5034136;28;20211;-82
2023/04/16 12:05:33;;;;;;;24.33;9.73;;;11.10;99.90;;;;;;5090578;28;20607;-78
2023/04/16 12:08:02;;;;;;;21.07;7.97;;;11.00;99.90;;;;;;5070695;28;20246;-84
2023/04/16 12:10:30;;;;;;;16.30;8.30;;;11.10;99.90;;;;;;5069772;28;20193;-84
2023/04/16 12:13:11;;;;;;;21.27;7.40;;;11.10;99.90;;;;;;5070951;28;20195;-83
2023/04/16 12:15:46;;;;;;;21.87;8.47;;;11.20;99.90;;;;;;5071139;28;20193;-80
2023/04/16 12:18:14;;;;;;;20.73;8.33;;;11.20;99.90;;;;;;5069758;28;20362;-79
2023/04/16 12:20:44;;;;;;;18.83;7.40;;;11.20;99.90;;;;;;5069765;28;20213;-80
2023/04/16 12:23:22;;;;;;;16.47;8.47;;;11.30;99.90;;;;;;5069623;28;20315;-85
2023/04/16 12:25:50;;;;;;;19.00;8.13;;;11.30;99.90;;;;;;5069541;28;20220;-80
2023/04/16 12:28:28;;;;;;;23.17;9.17;;;11.30;99.90;;;;;;5069903;28;20809;-83
2023/04/16 12:30:55;;;;;;;16.00;8.23;;;11.30;99.90;;;;;;5070038;28;20238;-80
2023/04/16 12:33:22;;;;;;;17.03;8.53;;;11.30;99.90;;;;;;5069972;28;20205;-80
2023/04/16 12:35:51;;;;;;;22.83;9.97;;;11.40;99.90;;;;;;5069315;28;20484;-88
2023/04/16 12:38:19;;;;;;;17.77;8.40;;;11.40;99.90;;;;;;5069633;28;20202;-83
2023/04/16 12:40:46;;;;;;;16.13;8.13;;;11.50;99.90;;;;;;5074508;28;20227;-81
2023/04/16 12:43:13;;;;;;;22.70;9.83;;;11.60;99.90;;;;;;5089435;28;20201;-79
2023/04/16 12:45:40;;;;;;;20.57;8.70;;;11.70;99.90;;;;;;5089135;28;20291;-81
2023/04/16 12:48:07;;;;;;;17.03;7.73;;;11.70;99.90;;;;;;5089885;28;20287;-80
2023/04/16 12:50:34;;;;;;;19.40;9.00;;;11.70;99.90;;;;;;5088654;28;20199;-79
2023/04/16 12:53:02;;;;;;;21.40;9.40;;;11.80;99.90;;;;;;5088147;28;20205;-81
2023/04/16 12:55:29;;;;;;;16.67;9.60;;;11.80;99.90;;;;;;5069152;28;20233;-81